Aérodrome :
LOGIN :

S'inscrire | Disclaimer

   EN    FR    IT 

 










Légende :    VFR   VFR Marginal   IFR   IFR Intensif   IFR Très Intensif
Visi : 
Plafond : 
>= 8 km
>= 3000ft
5 à 8 km
1000 à 3000 ft
1500m à 5 km
500 à 1000 ft
800 à 1500m
200 à 500 ft
< 800m
< 200 ft
Symboles :   Orages  Brouillard  Fortes neiges  Fortes précipitations  Vent > 20 kt
SIGMETs :   Divers  Orages  Givrage  Turbulence  Onde Orograph.  Cendres Volcan.







- Altitude de l'aérodrome : 17 ft
- Code IATA : GRQ


EHGG - Groningen Eelde

DERNIER METAR :
  • 221425Z AUTO 18011KT 150V210 2600 -SN FEW010 OVC015 M01/M03 Q1002 R05/010195 BECMG BKN012 TEMPO SN VV008

METARs EXPIRÉS :
  • 221355Z AUTO 18010KT 150V210 7000 -FZRA -SN SCT022 OVC026 M01/M04 Q1002 R05/010195 BECMG 4000 -SN
  • 221325Z AUTO 19011KT 160V220 9999 BKN019 OVC024 M00/M05 Q1002 R05/010195 BECMG 4000 -SN
  • 221255Z AUTO 18011KT 140V210 9999 OVC021 00/M05 Q1003 R05/010195 BECMG 4000 -SN
  • 221225Z AUTO 18012KT 140V210 9999 OVC020 00/M06 Q1003 R05/010195 NOSIG
  • 221155Z AUTO 18013KT 150V210 9999 SCT025 SCT029 00/M06 Q1003 R05/010195 NOSIG
  • 221125Z AUTO 17013KT 140V200 9999 NSC 00/M06 Q1004 R05/010195 NOSIG

TAF TAF EHGG
Valide du 22 à 12h jusqu'au 23 à 18h UTC


221120Z 2212/2318 17014KT CAVOK
BECMG 2212/2215 2500 -SN BKN012
TEMPO 2213/2220 1200 SN VV005
BECMG 2218/2221 4000 BR BKN006
PROB40 2300/2308 2000 BKN003
BECMG 2305/2308 13006KT
PROB30
TEMPO 2305/2312 4000 -SG -SN BKN008
BECMG 2308/2311 8000 NSW BKN020
Pas de NOTAMs connus pour ce terrain.



MET'MAP, la Météo Aéronautique d'un coup d'oeil ! - Copyright ORBIFLY Décembre 2007 - Disclaimer

ORBIFLY MET'MAP TEAM :

Programmation & Développement : Alexandra Zaïnal
Conception & Développement : Baudouin d'Aumeries
Co-Programmation & Développement : Marc-Olivier Méhu
Soutien technique & logistique : Manuel Goepfert

Contact : metmap@orbifly.com




SOURCES & CREDITS :

   NOAA